Home > Products > Valid Products > MTR

000
SAUS45 KRIW 220757
MTRP60
METAR KP60 220756Z AUTO 00000KT M03/M04 A3013 RMK AO1 SLP202
T10331044





000
SAUS45 KRIW 220658
MTRP60
METAR KP60 220656Z AUTO 31003KT M03/M04 A3011 RMK AO1 SLP192
T10281039 400611028





000
SAUS45 KRIW 220557
MTRP60
METAR KP60 220556Z AUTO 00000KT M03/M04 A3012 RMK AO1 SLP194 60004
T10281039 10017 21028 51008





000
SAUS45 KRIW 220557
MTRP60
METAR KP60 220556Z AUTO 00000KT M03/M04 A3012 RMK AO1 SLP194 60004
T10281039 10017 21028 51008





000
SAUS45 KRIW 220457
MTRP60
METAR KP60 220456Z AUTO 00000KT M02/M02 A3011 RMK AO1 SLP180
T10171022





000
SAUS45 KRIW 220457
MTRP60
METAR KP60 220456Z AUTO 00000KT M02/M02 A3011 RMK AO1 SLP180
T10171022





000
SAUS45 KRIW 220357
MTRP60
METAR KP60 220356Z AUTO 00000KT 00/M02 A3011 RMK AO1 SLP173
T00001017





000
SAUS45 KRIW 220357
MTRP60
METAR KP60 220356Z AUTO 00000KT 00/M02 A3011 RMK AO1 SLP173
T00001017





000
SAUS45 KRIW 220257
MTRP60
METAR KP60 220256Z AUTO 00000KT 00/M02 A3009 RMK AO1 SLP180 P0004
60004 T00001017 53009





000
SAUS45 KRIW 220157
MTRP60
METAR KP60 220156Z AUTO 27005KT 01/M02 A3007 RMK AO1 SLP178
T00061017





000
SAUS45 KRIW 220157
MTRP60
METAR KP60 220156Z AUTO 27005KT 01/M02 A3007 RMK AO1 SLP178
T00061017





000
SAUS45 KRIW 220057
MTRP60
METAR KP60 220056Z AUTO 00000KT 02/M03 A3007 RMK AO1 SLP178
T00171028





000
SAUS45 KRIW 212357
MTRP60
METAR KP60 212356Z AUTO 26007G16KT 02/M04 A3005 RMK AO1 SLP175 60004
T00171044 10039 20017 51007





000
SAUS45 KRIW 212257
MTRP60
METAR KP60 212256Z AUTO 28008G18KT 240V300 02/M04 A3005 RMK AO1
SLP174 T00221044





000
SAUS45 KRIW 212257
MTRP60
METAR KP60 212256Z AUTO 28008G18KT 240V300 02/M04 A3005 RMK AO1
SLP174 T00221044





000
SAUS45 KRIW 212157
MTRP60
METAR KP60 212156Z AUTO VRB05KT 03/M03 A3005 RMK AO1 SLP172
T00281033





000
SAUS45 KRIW 212157
MTRP60
METAR KP60 212156Z AUTO VRB05KT 03/M03 A3005 RMK AO1 SLP172
T00281033





000
SAUS45 KRIW 212057
MTRP60
METAR KP60 212056Z AUTO 27009G15KT 230V300 03/M02 A3003 RMK AO1
SLP158 60004 T00331017 53004





000
SAUS45 KRIW 211957
MTRP60
METAR KP60 211956Z AUTO 28010G22KT 240V340 03/00 A3001 RMK AO1
SLP153 T00330000





000
SAUS45 KRIW 211957
MTRP60
METAR KP60 211956Z AUTO 28010G22KT 240V340 03/00 A3001 RMK AO1
SLP153 T00330000





000
SAUS45 KRIW 211858
MTRP60
METAR KP60 211856Z AUTO VRB03KT 03/02 A3002 RMK AO1 SLP151 P0004
T00330017





000
SAUS45 KRIW 211757
MTRP60
METAR KP60 211756Z AUTO VRB06KT 04/02 A3001 RMK AO1 SLP145 60002
T00390022 10061 21022 53002





000
SAUS45 KRIW 211658
MTRP60
METAR KP60 211656Z AUTO VRB03KT 06/04 A3000 RMK AO1 SLP130 T00610039





000
SAUS45 KRIW 211658
MTRP60
METAR KP60 211656Z AUTO VRB03KT 06/04 A3000 RMK AO1 SLP130 T00610039





000
SAUS45 KRIW 211557
MTRP60
METAR KP60 211556Z AUTO 00000KT 06/04 A2998 RMK AO1 SLP121 T00610039





000
SAUS45 KRIW 211557
MTRP60
METAR KP60 211556Z AUTO 00000KT 06/04 A2998 RMK AO1 SLP121 T00610039





000
SAUS45 KRIW 211457
MTRP60
METAR KP60 211456Z AUTO 30003KT 02/01 A3000 RMK AO1 SLP139 P0002
60002 T00170011 51001





000
SAUS45 KRIW 211358
MTRP60
METAR KP60 211356Z AUTO 29003KT 00/M01 A3000 RMK AO1 SLP136
T00001006





000
SAUS45 KRIW 211257
MTRP60
METAR KP60 211256Z AUTO 00000KT M02/M03 A3001 RMK AO1 SLP130
T10171028





000
SAUS45 KRIW 211158
MTRP60
METAR KP60 211156Z AUTO 00000KT M02/M03 A3000 RMK AO1 SLP120
T10221033 10000 21022 56013





000
SAUS45 KRIW 211158
MTRP60
METAR KP60 211156Z AUTO 00000KT M02/M03 A3000 RMK AO1 SLP120
T10221033 10000 21022 56013





000
SAUS45 KRIW 211057
MTRP60
METAR KP60 211056Z AUTO 31003KT M02/M03 A3001 RMK AO1 SLP117
T10221033





000
SAUS45 KRIW 211057
MTRP60
METAR KP60 211056Z AUTO 31003KT M02/M03 A3001 RMK AO1 SLP117
T10221033





000
SAUS45 KRIW 210957
MTRP60
METAR KP60 210956Z AUTO 32003KT M02/M03 A3002 RMK AO1 SLP120
T10171028





000
SAUS45 KRIW 210957
MTRP60
METAR KP60 210956Z AUTO 32003KT M02/M03 A3002 RMK AO1 SLP120
T10171028





000
SAUS45 KRIW 210858
MTRP60
METAR KP60 210856Z AUTO 00000KT M02/M03 A3005 RMK AO1 SLP135
T10171028 56010





000
SAUS45 KRIW 210758
MTRP60
METAR KP60 210756Z AUTO 00000KT M01/M03 A3006 RMK AO1 SLP138
T10111028





000
SAUS45 KRIW 210657
MTRP60
METAR KP60 210656Z AUTO 32003KT M01/M02 A3007 RMK AO1 SLP148
T10061022 401671044





000
SAUS45 KRIW 210558
MTRP60
METAR KP60 210556Z AUTO 30003KT 00/M02 A3009 RMK AO1 SLP154
T00001022 10128 20000 58009





000
SAUS45 KRIW 210457
MTRP60
METAR KP60 210456Z AUTO 31003KT 01/M02 A3010 RMK AO1 SLP163
T00111017





000
SAUS45 KRIW 210358
MTRP60
METAR KP60 210356Z AUTO 31003KT 02/M01 A3011 RMK AO1 SLP173
T00221011





000
SAUS45 KRIW 210358
MTRP60
METAR KP60 210356Z AUTO 31003KT 02/M01 A3011 RMK AO1 SLP173
T00221011





000
SAUS45 KRIW 210257
MTRP60
METAR KP60 210256Z AUTO 32003KT 03/M01 A3012 RMK AO1 SLP190
T00331006 56006





000
SAUS45 KRIW 210157
MTRP60
METAR KP60 210156Z AUTO 00000KT 06/00 A3012 RMK AO1 SLP193 T00610000





000
SAUS45 KRIW 210157
MTRP60
METAR KP60 210156Z AUTO 00000KT 06/00 A3012 RMK AO1 SLP193 T00610000





000
SAUS45 KRIW 210057
MTRP60
METAR KP60 210056Z AUTO 00000KT 10/01 A3013 RMK AO1 SLP184 T01000006





000
SAUS45 KRIW 202358
MTRP60
METAR KP60 202356Z AUTO VRB04KT 13/00 A3014 RMK AO1 SLP178 T01280000
10167 20094 55002





000
SAUS45 KRIW 202257
MTRP60
METAR KP60 202256Z AUTO VRB06KT 15/M01 A3014 RMK AO1 SLP170
T01501006





000
SAUS45 KRIW 202257
MTRP60
METAR KP60 202256Z AUTO VRB06KT 15/M01 A3014 RMK AO1 SLP170
T01501006





000
SAUS45 KRIW 202157
MTRP60
METAR KP60 202156Z AUTO VRB03KT 16/M01 A3014 RMK AO1 SLP165
T01611006





000
SAUS45 KRIW 202157
MTRP60
METAR KP60 202156Z AUTO VRB03KT 16/M01 A3014 RMK AO1 SLP165
T01611006





000
SAUS45 KRIW 202057
MTRP60
METAR KP60 202056Z AUTO VRB04KT 14/02 A3015 RMK AO1 SLP174 T01390017
56019





000
SAUS45 KRIW 201957
MTRP60
METAR KP60 201956Z AUTO VRB03KT 13/01 A3017 RMK AO1 SLP183 T01330011





000
SAUS45 KRIW 201857
MTRP60
METAR KP60 201856Z AUTO 10004KT 10/M01 A3020 RMK AO1 SLP203
T01001006





000
SAUS45 KRIW 201758
MTRP60
METAR KP60 201756Z AUTO VRB03KT 09/M02 A3022 RMK AO1 SLP209
T00941022 10106 21044 58004





000
SAUS45 KRIW 201657
MTRP60
METAR KP60 201656Z AUTO 00000KT 07/00 A3023 RMK AO1 SLP221 T00720000





000
SAUS45 KRIW 201557
MTRP60
METAR KP60 201556Z AUTO 00000KT 04/M01 A3024 RMK AO1 SLP229
T00441006





000
SAUS45 KRIW 201457
MTRP60
METAR KP60 201456Z AUTO 00000KT M01/M04 A3023 RMK AO1 SLP243
T10111039 53001





000
SAUS45 KRIW 201357
MTRP60
METAR KP60 201356Z AUTO 31003KT M04/M06 A3023 RMK AO1 SLP247
T10441061





000
SAUS45 KRIW 201257
MTRP60
METAR KP60 201256Z AUTO 32003KT M04/M06 A3023 RMK AO1 SLP236
T10441061





000
SAUS45 KRIW 201158
MTRP60
METAR KP60 201156Z AUTO 32003KT M04/M06 A3023 RMK AO1 SLP210
T10391056 11022 21039 55002





000
SAUS45 KRIW 201057
MTRP60
METAR KP60 201056Z AUTO 00000KT M04/M06 A3022 RMK AO1 SLP200
T10391056





000
SAUS45 KRIW 200957
MTRP60
METAR KP60 200956Z AUTO 00000KT M03/M06 A3023 RMK AO1 SLP203
T10331056





000
SAUS45 KRIW 200957
MTRP60
METAR KP60 200956Z AUTO 00000KT M03/M06 A3023 RMK AO1 SLP203
T10331056





000
SAUS45 KRIW 200857
MTRP60
METAR KP60 200856Z AUTO 00000KT M03/M06 A3024 RMK AO1 SLP213
T10331056 58001





000
SAUS45 KRIW 200757
MTRP60
METAR KP60 200756Z AUTO 00000KT M03/M06 A3024 RMK AO1 SLP217
T10331061





000
SAUS45 KRIW 200657
MTRP60
METAR KP60 200656Z AUTO 00000KT M03/M06 A3024 RMK AO1 SLP222
T10281061 401501039





000
SAUS45 KRIW 200557
MTRP60
METAR KP60 200556Z AUTO 31003KT M02/M07 A3024 RMK AO1 SLP224
T10221067 10117 21028 51002





000
SAUS45 KRIW 200458
MTRP60
METAR KP60 200456Z AUTO 32004KT M02/M07 A3024 RMK AO1 SLP231
T10221067





000
SAUS45 KRIW 200358
MTRP60
METAR KP60 200356Z AUTO 32003KT M02/M06 A3024 RMK AO1 SLP235
T10171061





000
SAUS45 KRIW 200257
MTRP60
METAR KP60 200256Z AUTO 00000KT M01/M05 A3024 RMK AO1 SLP243
T10061050 51002





000
SAUS45 KRIW 200158
MTRP60
METAR KP60 200156Z AUTO 31005KT 01/M05 A3023 RMK AO1 SLP247
T00111050





000
SAUS45 KRIW 200058
MTRP60
METAR KP60 200056Z AUTO 31003KT 04/M03 A3023 RMK AO1 SLP239
T00391033





000
SAUS45 KRIW 192357
MTRP60
METAR KP60 192356Z AUTO 00000KT 12/M07 A3023 RMK AO1 SLP209
T01221067 10150 20072 55000





000
SAUS45 KRIW 192357
MTRP60
METAR KP60 192356Z AUTO 00000KT 12/M07 A3023 RMK AO1 SLP209
T01221067 10150 20072 55000





000
SAUS45 KRIW 192258
MTRP60
METAR KP60 192256Z AUTO VRB04KT 14/M09 A3022 RMK AO1 SLP199
T01441089





000
SAUS45 KRIW 192258
MTRP60
METAR KP60 192256Z AUTO VRB04KT 14/M09 A3022 RMK AO1 SLP199
T01441089





000
SAUS45 KRIW 192157
MTRP60
METAR KP60 192156Z AUTO VRB04KT 14/01 A3022 RMK AO1 SLP196 T01440011





000
SAUS45 KRIW 192057
MTRP60
METAR KP60 192056Z AUTO VRB04KT 12/01 A3023 RMK AO1 SLP205 T01220011
56014





000
SAUS45 KRIW 191957
MTRP60
METAR KP60 191956Z AUTO VRB04KT 11/02 A3024 RMK AO1 SLP215 T01110017





000
SAUS45 KRIW 191857
MTRP60
METAR KP60 191856Z AUTO 12003KT 09/M01 A3026 RMK AO1 SLP229
T00891006





000
SAUS45 KRIW 191757
MTRP60
METAR KP60 191756Z AUTO VRB03KT 07/01 A3028 RMK AO1 SLP238 T00720006
10072 21039 58000





000
SAUS45 KRIW 191657
MTRP60
METAR KP60 191656Z AUTO VRB03KT 06/02 A3028 RMK AO1 SLP239 T00560017





000
SAUS45 KRIW 191557
MTRP60
METAR KP60 191556Z AUTO 00000KT 04/02 A3028 RMK AO1 SLP243 T00390017





000
SAUS45 KRIW 191458
MTRP60
METAR KP60 191456Z AUTO 00000KT M01/M03 A3028 RMK AO1 SLP253
T10111028 53004





000
SAUS45 KRIW 191357
MTRP60
METAR KP60 191356Z AUTO 00000KT M04/M05 A3027 RMK AO1 SLP253
T10391050





000
SAUS45 KRIW 191257
MTRP60
METAR KP60 191256Z AUTO 00000KT M04/M05 A3026 RMK AO1 SLP234
T10391050





000
SAUS45 KRIW 191157
MTRP60
METAR KP60 191156Z AUTO 00000KT M03/M05 A3027 RMK AO1 SLP226
T10331050 11011 21033 56000





000
SAUS45 KRIW 191058
MTRP60
METAR KP60 191056Z AUTO 00000KT M03/M04 A3027 RMK AO1 SLP219
T10331044





000
SAUS45 KRIW 190958
MTRP60
METAR KP60 190956Z AUTO 00000KT M03/M04 A3026 RMK AO1 SLP210
T10281044





000
SAUS45 KRIW 190958
MTRP60
METAR KP60 190956Z AUTO 00000KT M03/M04 A3026 RMK AO1 SLP210
T10281044





000
SAUS45 KRIW 190857
MTRP60
METAR KP60 190856Z AUTO 00000KT M03/M04 A3027 RMK AO1 SLP213
T10281044 53005





    US Dept of Commerce
    National Oceanic and Atmospheric Administration
    National Weather Service
    1325 East West Highway
    Silver Spring, MD 20910
    Page Author: NWS Internet Services Team
Disclaimer
Information Quality
Credits
Glossary
Privacy Policy
Freedom of Information Act (FOIA)
About Us
Career Opportunities